Time;durP1;ratioP1;P1;durP2;ratioP2;P2;SDS_P1;SDS_P2;PMS_P1;PMS_P2;Temp;Humidity;BMP_temperature;BMP_pressure;BME280_temperature;BME280_humidity;BME280_pressure;Samples;Min_cycle;Max_cycle;Signal;HPM_P1;HPM_P2
2022/10/08 00:01:05;;;;;;;4.82;1.20;;;14.00;64.20;;;;;;5046023;28;20565;-71
2022/10/08 00:03:34;;;;;;;5.65;2.45;;;14.00;64.30;;;;;;5047291;28;20455;-71
2022/10/08 00:06:20;;;;;;;6.93;1.60;;;14.00;64.20;;;;;;5048964;28;20025;-73
2022/10/08 00:08:52;;;;;;;7.70;1.00;;;13.90;64.00;;;;;;5052674;28;20052;-73
2022/10/08 00:11:27;;;;;;;7.20;2.67;;;13.90;64.10;;;;;;5047570;28;20031;-71
2022/10/08 00:13:54;;;;;;;9.13;1.90;;;13.90;64.00;;;;;;5042081;28;20044;-73
2022/10/08 00:16:29;;;;;;;8.00;2.35;;;13.80;63.80;;;;;;5047888;28;20400;-72
2022/10/08 00:19:00;;;;;;;5.88;1.63;;;13.80;63.90;;;;;;5052535;28;20099;-72
2022/10/08 00:21:29;;;;;;;6.35;1.13;;;13.80;63.90;;;;;;5047571;28;20142;-72
2022/10/08 00:23:56;;;;;;;6.25;1.20;;;13.70;63.80;;;;;;5046125;28;20444;-72
2022/10/08 00:26:24;;;;;;;7.85;1.30;;;13.70;63.90;;;;;;5030288;28;20037;-73
2022/10/08 00:28:53;;;;;;;6.05;1.33;;;13.60;63.60;;;;;;5045615;28;20036;-74
2022/10/08 00:31:25;;;;;;;4.78;2.17;;;13.60;63.70;;;;;;5050168;28;20036;-73
2022/10/08 00:33:53;;;;;;;6.60;2.13;;;13.60;63.70;;;;;;5038544;28;20016;-72
2022/10/08 00:36:20;;;;;;;6.13;1.70;;;13.50;63.50;;;;;;5046585;28;20078;-73
2022/10/08 00:38:46;;;;;;;7.13;1.65;;;13.50;63.60;;;;;;5054470;28;20458;-71
2022/10/08 00:41:22;;;;;;;6.95;1.40;;;13.40;63.50;;;;;;5054397;28;20033;-73
2022/10/08 00:43:51;;;;;;;6.32;1.23;;;13.40;63.50;;;;;;5043360;28;20428;-71
2022/10/08 00:46:43;;;;;;;6.70;1.70;;;13.30;63.40;;;;;;5053685;28;20034;-72
2022/10/08 00:49:14;;;;;;;7.63;1.75;;;13.30;63.50;;;;;;5049681;28;20036;-72
2022/10/08 00:51:46;;;;;;;4.78;1.00;;;13.20;63.40;;;;;;5035396;28;20476;-72
2022/10/08 00:54:13;;;;;;;5.50;1.10;;;13.10;63.30;;;;;;5049100;28;20040;-72
2022/10/08 00:56:43;;;;;;;5.05;1.60;;;13.10;63.90;;;;;;5048392;28;20064;-72
2022/10/08 00:59:11;;;;;;;4.50;2.20;;;13.00;63.20;;;;;;5051990;28;20109;-72
2022/10/08 01:01:41;;;;;;;6.22;1.75;;;12.90;63.10;;;;;;5055640;28;20048;-71
2022/10/08 01:04:08;;;;;;;6.38;1.45;;;12.80;63.00;;;;;;5045017;28;20036;-72
2022/10/08 01:07:12;;;;;;;5.60;2.05;;;12.80;63.60;;;;;;5039464;28;20099;-72
2022/10/08 01:09:47;;;;;;;4.95;1.20;;;12.70;63.00;;;;;;5044350;28;20037;-72
2022/10/08 01:12:22;;;;;;;5.25;1.95;;;12.70;63.10;;;;;;5042856;28;20033;-73
2022/10/08 01:15:01;;;;;;;6.70;1.48;;;12.60;63.00;;;;;;5047701;28;20658;-72
2022/10/08 01:18:13;;;;;;;5.47;1.10;;;12.60;63.10;;;;;;5046258;28;20045;-72
2022/10/08 01:21:01;;;;;;;7.55;2.08;;;12.50;63.00;;;;;;5011342;28;20037;-73
2022/10/08 01:23:48;;;;;;;6.22;2.03;;;12.50;63.00;;;;;;5042959;28;20099;-72
2022/10/08 01:26:29;;;;;;;5.25;1.70;;;12.40;62.80;;;;;;5045662;28;20099;-72
2022/10/08 01:29:04;;;;;;;4.82;2.10;;;12.40;62.90;;;;;;5043790;28;20036;-72
2022/10/08 01:31:34;;;;;;;5.90;1.65;;;12.30;62.80;;;;;;5051648;28;20267;-72
2022/10/08 01:34:26;;;;;;;5.00;1.20;;;12.30;62.80;;;;;;5036956;28;20393;-72
2022/10/08 01:36:55;;;;;;;3.97;1.92;;;12.20;62.80;;;;;;5042561;28;20033;-72
2022/10/08 01:39:27;;;;;;;5.93;1.75;;;12.20;62.70;;;;;;5056446;28;20029;-72
2022/10/08 01:42:14;;;;;;;6.57;1.75;;;12.20;62.80;;;;;;5041995;28;20052;-72
2022/10/08 01:44:46;;;;;;;4.93;1.40;;;12.10;62.60;;;;;;5045529;28;20031;-72
2022/10/08 01:47:16;;;;;;;5.45;1.17;;;12.10;62.60;;;;;;5044849;28;20040;-73
2022/10/08 01:49:52;;;;;;;5.38;1.27;;;12.00;62.50;;;;;;5048430;28;20025;-71
2022/10/08 01:52:28;;;;;;;8.32;1.65;;;12.00;62.60;;;;;;5021009;28;20044;-72
2022/10/08 01:55:01;;;;;;;5.97;1.55;;;11.90;62.50;;;;;;5046451;28;20025;-72
2022/10/08 01:57:31;;;;;;;4.25;1.15;;;11.90;62.60;;;;;;5043701;28;20526;-72
2022/10/08 02:00:08;;;;;;;7.40;1.70;;;11.90;62.60;;;;;;5050218;28;20074;-71
2022/10/08 02:02:41;;;;;;;1.83;1.08;;;11.80;62.50;;;;;;5049994;28;20049;-71
2022/10/08 02:05:09;;;;;;;4.72;1.30;;;11.80;62.50;;;;;;5049332;28;20029;-73
2022/10/08 02:07:41;;;;;;;4.30;1.40;;;11.70;62.40;;;;;;5045724;28;20045;-73
2022/10/08 02:10:15;;;;;;;5.90;1.17;;;11.70;62.50;;;;;;5050291;28;20051;-72
2022/10/08 02:12:42;;;;;;;5.65;1.95;;;11.60;62.40;;;;;;5038474;28;20578;-72
2022/10/08 02:15:14;;;;;;;6.28;2.08;;;11.60;62.40;;;;;;5047756;28;20032;-74
2022/10/08 02:18:07;;;;;;;4.35;1.50;;;11.60;62.50;;;;;;5048580;28;20052;-72
2022/10/08 02:20:33;;;;;;;2.38;0.98;;;11.50;62.40;;;;;;5043401;28;20033;-72
2022/10/08 02:23:16;;;;;;;6.35;1.77;;;11.50;62.40;;;;;;5033551;28;20036;-72
2022/10/08 02:25:50;;;;;;;4.68;2.05;;;11.40;62.20;;;;;;5048884;28;20665;-73
2022/10/08 02:28:25;;;;;;;5.43;1.15;;;11.40;62.30;;;;;;5047343;28;20037;-73
2022/10/08 02:31:21;;;;;;;5.10;1.05;;;11.30;62.10;;;;;;5037008;28;20039;-72
2022/10/08 02:33:56;;;;;;;4.07;1.23;;;11.30;62.20;;;;;;5041590;28;20101;-72
2022/10/08 02:36:26;;;;;;;3.35;1.08;;;11.20;62.00;;;;;;5042727;28;20095;-72
2022/10/08 02:39:00;;;;;;;4.75;1.55;;;11.20;62.10;;;;;;5027568;28;20041;-71
2022/10/08 02:41:31;;;;;;;3.75;1.23;;;11.10;62.00;;;;;;5048123;28;20055;-73
2022/10/08 02:44:04;;;;;;;4.60;1.20;;;11.10;62.00;;;;;;5043878;28;20036;-72
2022/10/08 02:46:37;;;;;;;3.30;1.23;;;11.10;62.00;;;;;;5045002;28;20036;-73
2022/10/08 02:49:12;;;;;;;4.93;1.02;;;11.00;61.90;;;;;;5061719;28;20028;-75
2022/10/08 02:51:44;;;;;;;4.03;1.63;;;11.00;61.90;;;;;;5044074;28;20029;-74
2022/10/08 02:54:11;;;;;;;6.55;2.30;;;11.00;61.90;;;;;;5050299;28;20025;-71
2022/10/08 02:56:45;;;;;;;3.58;1.27;;;10.90;61.80;;;;;;5050958;28;20037;-72
2022/10/08 02:59:16;;;;;;;5.03;1.50;;;10.90;61.90;;;;;;5051721;28;20045;-72
2022/10/08 03:01:48;;;;;;;5.95;1.95;;;10.90;61.90;;;;;;5042381;28;20183;-72
2022/10/08 03:04:20;;;;;;;4.00;1.20;;;10.80;61.80;;;;;;5048513;28;20025;-73
2022/10/08 03:06:47;;;;;;;9.20;1.13;;;10.80;61.80;;;;;;5048716;28;20032;-72
2022/10/08 03:09:16;;;;;;;5.25;1.40;;;10.70;61.70;;;;;;5047381;28;20141;-72
2022/10/08 03:11:43;;;;;;;6.32;1.15;;;10.70;61.70;;;;;;5053402;28;20039;-74
2022/10/08 03:14:12;;;;;;;4.47;1.10;;;10.70;62.00;;;;;;5047458;28;20025;-72
2022/10/08 03:16:44;;;;;;;4.88;1.50;;;10.60;61.70;;;;;;5053378;28;20031;-73
2022/10/08 03:19:13;;;;;;;5.10;1.15;;;10.60;61.80;;;;;;5050481;28;20049;-72
2022/10/08 03:21:42;;;;;;;4.65;1.17;;;10.60;61.80;;;;;;5051419;28;20041;-72
2022/10/08 03:24:10;;;;;;;3.60;1.00;;;10.50;61.70;;;;;;5047855;28;20041;-72
2022/10/08 03:26:37;;;;;;;3.85;1.20;;;10.50;61.70;;;;;;5051282;28;20055;-72
2022/10/08 03:29:03;;;;;;;7.13;1.92;;;10.50;61.70;;;;;;5049978;28;20205;-71
2022/10/08 03:31:30;;;;;;;4.53;0.80;;;10.50;61.80;;;;;;5061584;28;20513;-72
2022/10/08 03:34:00;;;;;;;2.60;0.82;;;10.40;61.60;;;;;;5052366;28;20481;-72
2022/10/08 03:36:28;;;;;;;5.50;1.40;;;10.40;61.70;;;;;;5051283;28;20039;-72
2022/10/08 03:38:54;;;;;;;7.22;1.88;;;10.40;61.70;;;;;;5058475;28;20562;-72
2022/10/08 03:41:20;;;;;;;3.45;0.90;;;10.40;61.70;;;;;;5049833;28;20108;-73
2022/10/08 03:43:46;;;;;;;5.63;1.63;;;10.30;61.60;;;;;;5053107;28;20086;-73
2022/10/08 03:46:15;;;;;;;3.85;1.05;;;10.30;61.70;;;;;;5046232;28;20556;-72
2022/10/08 03:48:42;;;;;;;4.35;1.30;;;10.30;61.70;;;;;;5056647;28;20036;-73
2022/10/08 03:51:11;;;;;;;4.95;1.83;;;10.20;61.60;;;;;;5041052;28;20234;-72
2022/10/08 03:53:40;;;;;;;3.20;1.08;;;10.20;61.70;;;;;;5045999;28;20075;-71
2022/10/08 03:56:19;;;;;;;5.07;1.10;;;10.20;61.70;;;;;;5056915;28;20047;-71
2022/10/08 03:58:53;;;;;;;2.97;1.10;;;10.20;61.80;;;;;;5054284;28;20046;-72
2022/10/08 04:01:19;;;;;;;3.03;1.30;;;10.20;61.80;;;;;;5043854;28;20025;-72
2022/10/08 04:03:45;;;;;;;3.85;1.42;;;10.10;61.60;;;;;;5059399;28;20515;-72
2022/10/08 04:06:12;;;;;;;4.30;1.25;;;10.10;61.70;;;;;;5051629;28;20037;-72
2022/10/08 04:08:41;;;;;;;3.97;1.00;;;10.10;61.80;;;;;;5053810;28;20033;-72
2022/10/08 04:11:09;;;;;;;4.18;1.02;;;10.00;61.60;;;;;;5050192;28;20051;-72
2022/10/08 04:13:36;;;;;;;5.63;1.40;;;10.00;61.70;;;;;;5039242;28;20044;-72
2022/10/08 04:16:07;;;;;;;3.05;1.20;;;10.00;61.80;;;;;;5035097;28;20477;-71
2022/10/08 04:18:33;;;;;;;5.60;1.25;;;10.00;61.80;;;;;;5059518;28;20037;-71
2022/10/08 04:21:02;;;;;;;2.33;1.08;;;10.00;61.80;;;;;;5052842;28;20120;-72
2022/10/08 04:23:32;;;;;;;3.88;1.58;;;10.00;61.80;;;;;;5048504;28;20027;-72
2022/10/08 04:25:58;;;;;;;5.53;1.08;;;9.90;61.70;;;;;;5051413;28;20021;-72
2022/10/08 04:28:24;;;;;;;4.15;1.33;;;9.90;61.70;;;;;;5046813;28;20037;-71
2022/10/08 04:30:58;;;;;;;4.75;1.00;;;9.90;61.70;;;;;;5047532;28;20520;-73
2022/10/08 04:33:26;;;;;;;4.22;1.20;;;9.90;61.80;;;;;;5032754;28;20037;-72
2022/10/08 04:35:53;;;;;;;6.00;1.63;;;9.90;61.80;;;;;;5044639;28;20044;-73
2022/10/08 04:38:20;;;;;;;5.95;1.35;;;9.80;61.70;;;;;;5034260;28;20375;-72
2022/10/08 04:40:46;;;;;;;5.15;1.10;;;9.80;61.70;;;;;;5053428;28;20120;-72
2022/10/08 04:43:13;;;;;;;5.50;1.65;;;9.80;61.80;;;;;;5046405;28;20033;-74
2022/10/08 04:45:45;;;;;;;2.83;1.25;;;9.80;61.80;;;;;;5056144;28;20564;-74
2022/10/08 04:48:14;;;;;;;7.47;2.10;;;9.70;61.80;;;;;;5051846;28;21074;-72
2022/10/08 04:50:39;;;;;;;5.05;1.20;;;9.70;61.80;;;;;;5051057;28;20032;-73
2022/10/08 04:53:06;;;;;;;6.57;1.30;;;9.60;61.60;;;;;;5058955;28;20037;-71
2022/10/08 04:55:35;;;;;;;5.07;1.17;;;9.60;61.70;;;;;;5051871;28;20247;-72
2022/10/08 04:58:01;;;;;;;6.35;2.08;;;9.60;61.70;;;;;;5050304;28;20037;-72
2022/10/08 05:00:27;;;;;;;4.07;1.20;;;9.60;61.70;;;;;;5056641;28;20032;-73
2022/10/08 05:02:53;;;;;;;6.22;1.10;;;9.50;61.60;;;;;;5048502;28;20025;-72
2022/10/08 05:05:19;;;;;;;3.25;1.30;;;9.50;61.70;;;;;;5048116;28;20040;-77
2022/10/08 05:07:45;;;;;;;4.10;1.50;;;9.50;61.80;;;;;;5052051;28;20573;-77
2022/10/08 05:10:11;;;;;;;10.55;1.85;;;9.40;61.60;;;;;;5052716;28;20103;-76
2022/10/08 05:12:38;;;;;;;5.90;1.70;;;9.40;61.60;;;;;;5027087;28;20484;-75
2022/10/08 05:15:06;;;;;;;2.60;1.10;;;9.40;62.20;;;;;;5056912;28;20039;-75
2022/10/08 05:17:33;;;;;;;4.10;1.20;;;9.40;61.70;;;;;;5047699;28;20424;-77
2022/10/08 05:19:59;;;;;;;8.45;1.80;;;9.40;61.70;;;;;;5049153;28;20025;-75
2022/10/08 05:22:25;;;;;;;5.45;1.20;;;9.40;61.80;;;;;;5046832;28;20028;-74
2022/10/08 05:24:52;;;;;;;4.82;1.30;;;9.40;61.80;;;;;;5052958;28;20194;-77
2022/10/08 05:27:19;;;;;;;4.60;1.27;;;9.30;61.60;;;;;;5049926;28;20035;-74
2022/10/08 05:29:45;;;;;;;5.32;1.58;;;9.30;61.60;;;;;;5046976;28;20017;-75
2022/10/08 05:32:10;;;;;;;3.05;1.23;;;9.30;61.60;;;;;;5046589;28;20102;-75
2022/10/08 05:34:37;;;;;;;4.05;1.27;;;9.30;61.60;;;;;;5046392;28;20025;-75
2022/10/08 05:37:03;;;;;;;3.13;0.90;;;9.20;61.40;;;;;;5050330;28;20530;-74
2022/10/08 05:39:30;;;;;;;3.50;0.85;;;9.20;61.40;;;;;;5044913;28;20040;-73
2022/10/08 05:41:57;;;;;;;3.58;0.80;;;9.20;61.40;;;;;;5052741;28;20021;-74
2022/10/08 05:44:23;;;;;;;3.20;1.15;;;9.10;61.30;;;;;;5049322;28;20350;-74
2022/10/08 05:46:49;;;;;;;2.05;0.95;;;9.00;61.10;;;;;;5048734;28;20029;-75
2022/10/08 05:49:18;;;;;;;5.00;1.45;;;9.00;61.10;;;;;;5046856;28;20033;-76
2022/10/08 05:51:45;;;;;;;3.45;1.10;;;9.00;61.20;;;;;;5048919;28;20044;-74
2022/10/08 05:54:11;;;;;;;5.45;1.25;;;9.00;61.20;;;;;;5044637;28;20027;-72
2022/10/08 05:56:37;;;;;;;3.30;1.23;;;8.90;61.00;;;;;;5044626;28;20036;-71
2022/10/08 05:59:04;;;;;;;2.10;1.00;;;8.90;61.10;;;;;;5048132;28;20052;-72
2022/10/08 06:01:32;;;;;;;4.68;1.02;;;8.80;60.90;;;;;;5046083;28;20017;-72
2022/10/08 06:04:01;;;;;;;3.65;1.40;;;8.80;61.00;;;;;;5047764;28;20032;-73
2022/10/08 06:06:27;;;;;;;4.35;1.52;;;8.70;60.80;;;;;;5047394;28;20426;-72
2022/10/08 06:08:57;;;;;;;4.88;1.20;;;8.70;60.80;;;;;;5047383;28;20048;-77
2022/10/08 06:11:23;;;;;;;2.50;1.00;;;8.70;60.80;;;;;;5049102;28;20025;-76
2022/10/08 06:13:58;;;;;;;7.60;1.48;;;8.70;60.80;;;;;;5045152;28;20037;-73
2022/10/08 06:16:25;;;;;;;4.00;1.73;;;8.60;60.70;;;;;;5039223;28;20035;-74
2022/10/08 06:18:52;;;;;;;3.90;1.20;;;8.60;60.70;;;;;;5045170;28;20040;-73
2022/10/08 06:21:21;;;;;;;4.20;1.40;;;8.60;60.70;;;;;;5044888;28;20024;-74
2022/10/08 06:23:53;;;;;;;4.78;1.40;;;8.50;60.60;;;;;;5044875;28;20021;-73
2022/10/08 06:26:21;;;;;;;2.85;1.13;;;8.50;60.60;;;;;;5044326;28;20082;-73
2022/10/08 06:28:47;;;;;;;4.18;1.83;;;8.40;60.40;;;;;;5046398;28;20037;-74
2022/10/08 06:31:15;;;;;;;4.53;1.45;;;8.50;60.60;;;;;;5044228;28;20070;-73
2022/10/08 06:33:41;;;;;;;6.35;1.63;;;8.50;60.60;;;;;;5038988;28;20113;-73
2022/10/08 06:36:13;;;;;;;4.88;1.08;;;8.40;60.50;;;;;;5041851;28;20029;-74
2022/10/08 06:38:39;;;;;;;6.25;1.70;;;8.40;60.80;;;;;;5041676;28;20047;-75
2022/10/08 06:41:05;;;;;;;7.63;1.90;;;8.50;61.20;;;;;;5043538;28;20123;-72
2022/10/08 06:43:31;;;;;;;5.00;2.03;;;8.50;61.40;;;;;;5046156;28;20055;-72
2022/10/08 06:45:59;;;;;;;5.45;2.35;;;8.60;61.90;;;;;;5040908;28;20094;-73
2022/10/08 06:48:26;;;;;;;8.57;2.53;;;8.60;62.00;;;;;;5044482;28;20449;-74
2022/10/08 06:51:00;;;;;;;6.28;1.67;;;8.70;62.10;;;;;;5042797;28;20091;-73
2022/10/08 06:53:26;;;;;;;2.95;2.08;;;8.70;62.10;;;;;;5045517;28;20047;-73
2022/10/08 06:55:57;;;;;;;5.95;1.58;;;8.70;62.00;;;;;;5046241;28;20092;-73
2022/10/08 06:58:23;;;;;;;7.65;1.92;;;8.70;62.00;;;;;;5044073;28;20036;-73
2022/10/08 07:00:49;;;;;;;5.97;1.50;;;8.70;62.10;;;;;;5048337;28;20081;-72
2022/10/08 07:03:15;;;;;;;4.85;1.80;;;8.60;61.90;;;;;;5046646;28;20547;-73
2022/10/08 07:05:43;;;;;;;2.45;1.17;;;8.70;62.10;;;;;;5042777;28;20029;-76
2022/10/08 07:08:08;;;;;;;11.52;3.33;;;8.70;62.00;;;;;;5048632;28;20102;-74
2022/10/08 07:10:34;;;;;;;4.75;2.17;;;8.60;62.40;;;;;;5048639;28;20473;-74
2022/10/08 07:13:00;;;;;;;6.43;2.35;;;8.70;62.40;;;;;;5045346;28;20497;-78
2022/10/08 07:15:31;;;;;;;5.90;1.80;;;8.80;62.70;;;;;;5047924;28;20063;-76
2022/10/08 07:17:58;;;;;;;4.95;1.63;;;8.90;63.20;;;;;;5047666;28;20505;-77
2022/10/08 07:20:24;;;;;;;10.27;1.88;;;9.00;63.40;;;;;;5045868;28;20033;-74
2022/10/08 07:22:50;;;;;;;4.95;1.88;;;9.10;63.50;;;;;;5046173;28;20112;-72
2022/10/08 07:25:22;;;;;;;7.85;1.75;;;9.20;63.40;;;;;;5048153;28;20400;-74
2022/10/08 07:27:48;;;;;;;10.05;2.10;;;9.20;63.30;;;;;;5045109;28;20028;-74
2022/10/08 07:30:13;;;;;;;3.35;1.58;;;9.20;63.20;;;;;;5040873;28;20020;-73
2022/10/08 07:32:40;;;;;;;3.60;1.40;;;9.20;63.10;;;;;;5046453;28;20017;-73
2022/10/08 07:35:07;;;;;;;3.00;1.25;;;9.20;63.00;;;;;;5046134;28;20040;-72
2022/10/08 07:37:34;;;;;;;6.20;1.92;;;9.20;63.00;;;;;;5043820;28;20059;-72
2022/10/08 07:40:00;;;;;;;4.03;1.55;;;9.20;63.00;;;;;;5045864;28;20040;-73
2022/10/08 07:42:27;;;;;;;6.22;1.52;;;9.20;63.00;;;;;;5043192;28;20029;-72
2022/10/08 07:44:53;;;;;;;5.10;1.65;;;9.20;63.10;;;;;;5049263;28;20056;-75
2022/10/08 07:47:19;;;;;;;4.90;1.55;;;9.20;63.10;;;;;;5021557;28;20022;-74
2022/10/08 07:49:46;;;;;;;4.30;2.22;;;9.20;63.10;;;;;;5009974;28;20033;-71
2022/10/08 07:52:12;;;;;;;3.63;0.98;;;9.20;63.10;;;;;;5045661;28;20047;-72
2022/10/08 07:54:38;;;;;;;4.93;1.33;;;9.20;63.00;;;;;;5044011;28;20029;-75
2022/10/08 07:57:04;;;;;;;3.75;1.35;;;9.20;63.00;;;;;;5046954;28;20056;-76
2022/10/08 07:59:30;;;;;;;4.00;1.10;;;9.30;63.20;;;;;;5046255;28;20033;-75
2022/10/08 08:01:56;;;;;;;3.75;1.30;;;9.20;63.00;;;;;;5048636;28;20017;-73
2022/10/08 08:04:24;;;;;;;2.35;1.00;;;9.30;63.20;;;;;;5046127;28;20393;-74
2022/10/08 08:06:51;;;;;;;5.88;1.20;;;9.30;63.20;;;;;;5047971;28;20021;-73
2022/10/08 08:09:17;;;;;;;4.50;1.23;;;9.40;63.30;;;;;;5048985;28;20033;-72
2022/10/08 08:11:47;;;;;;;3.83;1.33;;;9.40;63.40;;;;;;5044449;28;20025;-71
2022/10/08 08:14:13;;;;;;;4.13;1.35;;;9.40;63.30;;;;;;5049702;28;20091;-74
2022/10/08 08:16:41;;;;;;;2.55;1.15;;;9.50;63.50;;;;;;5044593;28;20029;-74
2022/10/08 08:19:07;;;;;;;3.55;1.48;;;9.50;63.50;;;;;;5043912;28;20056;-74
2022/10/08 08:21:35;;;;;;;4.57;1.75;;;9.60;63.70;;;;;;5047590;28;20078;-77
2022/10/08 08:24:10;;;;;;;6.28;1.48;;;9.60;63.70;;;;;;5032345;28;20444;-75
2022/10/08 08:26:37;;;;;;;6.15;1.73;;;9.60;63.70;;;;;;5047150;28;20491;-73
2022/10/08 08:29:06;;;;;;;5.25;1.80;;;9.70;63.90;;;;;;5046450;28;20040;-74
2022/10/08 08:31:35;;;;;;;4.82;1.85;;;9.80;64.40;;;;;;5046837;28;20021;-71
2022/10/08 08:34:06;;;;;;;6.45;1.60;;;9.90;64.50;;;;;;5046589;28;20021;-73
2022/10/08 08:36:34;;;;;;;10.85;2.70;;;9.90;64.50;;;;;;5046721;28;20021;-73
2022/10/08 08:39:02;;;;;;;7.97;1.88;;;10.00;64.70;;;;;;5030042;28;20048;-72
2022/10/08 08:42:01;;;;;;;7.88;1.70;;;10.10;64.90;;;;;;5048744;28;20033;-74
2022/10/08 08:44:36;;;;;;;10.35;2.00;;;10.10;65.00;;;;;;5047545;28;20147;-76
2022/10/08 08:47:19;;;;;;;7.07;1.95;;;10.20;65.10;;;;;;5046368;28;20039;-73
2022/10/08 08:50:22;;;;;;;7.30;1.93;;;10.20;65.20;;;;;;5039716;28;20037;-75
2022/10/08 08:52:48;;;;;;;10.07;2.13;;;10.30;65.40;;;;;;5047395;28;20150;-72
2022/10/08 08:55:18;;;;;;;5.25;1.67;;;10.40;65.30;;;;;;5030543;28;20037;-73
2022/10/08 08:58:12;;;;;;;6.85;1.80;;;10.40;65.40;;;;;;5047395;28;20056;-72
2022/10/08 09:00:43;;;;;;;12.55;2.63;;;10.50;65.80;;;;;;5045681;28;20029;-73
2022/10/08 09:03:23;;;;;;;9.18;1.85;;;10.60;65.80;;;;;;5050089;28;20028;-76
2022/10/08 09:05:55;;;;;;;6.22;1.73;;;10.60;65.90;;;;;;5043429;28;20033;-72
2022/10/08 09:08:27;;;;;;;5.55;1.90;;;10.70;66.10;;;;;;5047870;28;20037;-74
2022/10/08 09:10:58;;;;;;;;;;;10.80;66.30;;;;;;5028870;28;20306;-73
2022/10/08 09:13:33;;;;;;;10.07;2.40;;;10.90;66.40;;;;;;5044869;28;20029;-72
2022/10/08 09:16:00;;;;;;;9.05;2.33;;;11.00;66.20;;;;;;5043265;28;20028;-72
2022/10/08 09:18:26;;;;;;;8.60;1.88;;;11.10;66.40;;;;;;5044024;28;20044;-72
2022/10/08 09:20:51;;;;;;;9.55;2.58;;;11.10;66.30;;;;;;5041190;28;20477;-73
2022/10/08 09:23:20;;;;;;;8.77;2.13;;;11.20;66.50;;;;;;5045561;28;20036;-73
2022/10/08 09:25:51;;;;;;;7.55;1.98;;;11.30;66.70;;;;;;5046191;28;20037;-74
2022/10/08 09:28:55;;;;;;;7.72;2.08;;;11.40;66.90;;;;;;5041655;28;20029;-73
2022/10/08 09:31:44;;;;;;;9.90;2.88;;;11.40;67.10;;;;;;5048667;28;20043;-73
2022/10/08 09:34:10;;;;;;;8.65;2.38;;;11.50;67.00;;;;;;5042055;28;20041;-72
2022/10/08 09:36:50;;;;;;;11.95;2.88;;;11.50;66.90;;;;;;5044086;28;20040;-73
2022/10/08 09:39:48;;;;;;;10.90;2.42;;;11.60;67.20;;;;;;5049256;28;20033;-73
2022/10/08 09:42:18;;;;;;;12.55;1.98;;;11.70;67.40;;;;;;5042748;28;20032;-72
2022/10/08 09:44:49;;;;;;;8.48;1.88;;;11.70;67.30;;;;;;5046380;28;20040;-72
2022/10/08 09:47:37;;;;;;;12.60;3.13;;;11.80;67.50;;;;;;5045270;28;20082;-74
2022/10/08 09:50:14;;;;;;;10.55;1.58;;;11.80;67.50;;;;;;5043673;28;20454;-74
2022/10/08 09:52:41;;;;;;;12.40;2.13;;;11.90;67.50;;;;;;5047221;28;20373;-74
2022/10/08 09:55:49;;;;;;;11.88;2.45;;;12.00;67.60;;;;;;5026964;28;20432;-75
2022/10/08 09:58:17;;;;;;;11.13;2.25;;;12.00;67.70;;;;;;5031443;28;20041;-74
2022/10/08 10:00:43;;;;;;;9.85;1.75;;;12.10;67.70;;;;;;5048255;28;20028;-72
2022/10/08 10:03:17;;;;;;;12.88;2.50;;;12.20;68.00;;;;;;5045676;28;20036;-74
2022/10/08 10:05:51;;;;;;;8.35;2.00;;;12.30;68.20;;;;;;5048087;28;20048;-77
2022/10/08 10:08:40;;;;;;;8.52;2.65;;;12.40;68.20;;;;;;5045667;28;20047;-74
2022/10/08 10:11:11;;;;;;;7.38;1.75;;;12.40;68.10;;;;;;5048559;28;20035;-74
2022/10/08 10:13:40;;;;;;;9.68;1.88;;;12.50;68.00;;;;;;5045028;28;20029;-73
2022/10/08 10:16:21;;;;;;;6.68;2.28;;;12.60;68.10;;;;;;5047556;28;20060;-76
2022/10/08 10:19:02;;;;;;;7.07;2.10;;;12.70;68.20;;;;;;5042112;28;20045;-74
2022/10/08 10:21:53;;;;;;;8.18;2.22;;;12.70;68.00;;;;;;5044760;28;20111;-75
2022/10/08 10:25:01;;;;;;;7.95;1.98;;;12.80;68.00;;;;;;5046686;28;20086;-77
2022/10/08 10:27:39;;;;;;;13.05;2.97;;;12.90;68.00;;;;;;5050122;28;20031;-79
2022/10/08 10:30:14;;;;;;;9.50;1.75;;;13.00;68.00;;;;;;5047841;28;20039;-78
2022/10/08 10:32:58;;;;;;;11.60;2.35;;;13.00;67.90;;;;;;5049820;28;20025;-78
2022/10/08 10:35:29;;;;;;;9.77;2.00;;;13.10;67.90;;;;;;5032905;28;20128;-82
2022/10/08 10:38:05;;;;;;;11.70;2.75;;;13.10;67.70;;;;;;5032181;28;20104;-86
2022/10/08 10:40:41;;;;;;;10.77;1.90;;;13.20;67.80;;;;;;5048362;28;20043;-80
2022/10/08 10:43:16;;;;;;;10.80;2.15;;;13.20;67.60;;;;;;5043304;28;20029;-72
2022/10/08 10:45:51;;;;;;;7.43;2.10;;;13.30;67.70;;;;;;5045621;28;20027;-74
2022/10/08 10:48:16;;;;;;;9.95;1.67;;;13.30;67.60;;;;;;5043589;28;20411;-73
2022/10/08 10:51:38;;;;;;;10.63;1.83;;;13.40;67.60;;;;;;5036357;28;20504;-74
2022/10/08 10:54:13;;;;;;;7.32;2.00;;;13.50;67.70;;;;;;5048974;28;20060;-76
2022/10/08 10:56:51;;;;;;;7.38;2.17;;;13.50;67.50;;;;;;5041374;28;20389;-76
2022/10/08 10:59:40;;;;;;;6.85;1.60;;;13.60;67.50;;;;;;5048257;28;20052;-75
2022/10/08 11:02:24;;;;;;;6.38;1.80;;;13.70;67.60;;;;;;5051815;28;20020;-75
2022/10/08 11:05:08;;;;;;;;;;;13.80;67.60;;;;;;5045586;28;20171;-76
2022/10/08 11:07:37;;;;;;;5.75;1.50;;;13.90;67.50;;;;;;5027340;28;20242;-74
2022/10/08 11:10:08;;;;;;;7.38;1.58;;;13.90;67.30;;;;;;5046216;28;20043;-75
2022/10/08 11:12:56;;;;;;;7.55;1.95;;;14.00;67.50;;;;;;5045352;28;20317;-75
2022/10/08 11:15:39;;;;;;;7.68;1.63;;;14.10;67.50;;;;;;5047441;28;20033;-75
2022/10/08 11:18:31;;;;;;;9.88;1.60;;;14.20;67.30;;;;;;5042538;28;20049;-75
2022/10/08 11:21:09;;;;;;;6.80;1.63;;;14.20;67.10;;;;;;5041258;28;20021;-75
2022/10/08 11:24:01;;;;;;;6.13;2.03;;;14.40;67.20;;;;;;5043684;28;20040;-76
2022/10/08 11:26:36;;;;;;;12.10;3.30;;;14.40;66.90;;;;;;5029473;28;20041;-74
2022/10/08 11:29:18;;;;;;;4.82;1.20;;;14.50;66.80;;;;;;5045093;28;20570;-75
2022/10/08 11:31:49;;;;;;;4.15;1.20;;;14.60;66.80;;;;;;5044975;28;20048;-76
2022/10/08 11:34:26;;;;;;;6.65;1.92;;;14.60;66.50;;;;;;5045657;28;20021;-75
2022/10/08 11:37:05;;;;;;;7.18;2.33;;;14.70;66.40;;;;;;5028390;28;20033;-76
2022/10/08 11:39:34;;;;;;;9.13;1.52;;;14.70;66.10;;;;;;5045671;28;20484;-73
2022/10/08 11:42:20;;;;;;;6.50;1.95;;;14.70;65.90;;;;;;5045908;28;20029;-74
2022/10/08 11:44:46;;;;;;;7.93;2.42;;;14.80;65.80;;;;;;5058046;28;20261;-76
2022/10/08 11:47:45;;;;;;;7.13;1.30;;;14.80;65.70;;;;;;5055108;28;20067;-76
2022/10/08 11:50:22;;;;;;;6.13;1.20;;;14.80;65.20;;;;;;5049376;28;20166;-76
2022/10/08 11:52:49;;;;;;;9.70;2.60;;;14.90;65.30;;;;;;5051499;28;20500;-75
2022/10/08 11:55:27;;;;;;;5.30;1.35;;;15.00;65.30;;;;;;5053386;28;20294;-76
2022/10/08 11:58:06;;;;;;;7.85;2.03;;;15.10;65.10;;;;;;5051605;28;20037;-74
2022/10/08 12:00:42;;;;;;;8.38;2.17;;;15.10;64.90;;;;;;5054322;28;20033;-76
2022/10/08 12:03:17;;;;;;;10.63;3.08;;;15.20;64.70;;;;;;5052899;28;20091;-78
2022/10/08 12:05:55;;;;;;;6.75;2.00;;;15.30;64.60;;;;;;5014739;28;20029;-74
2022/10/08 12:08:53;;;;;;;7.55;1.92;;;15.40;64.60;;;;;;5049734;28;20197;-72
2022/10/08 12:11:31;;;;;;;9.27;2.65;;;15.50;64.50;;;;;;5047387;28;20056;-77
2022/10/08 12:14:16;;;;;;;8.30;1.67;;;15.60;64.40;;;;;;5050393;28;20036;-76
2022/10/08 12:16:47;;;;;;;6.68;2.03;;;15.70;64.30;;;;;;5052150;28;20036;-76
2022/10/08 12:19:34;;;;;;;6.53;2.03;;;15.70;64.20;;;;;;5051424;28;20044;-76
2022/10/08 12:22:31;;;;;;;9.45;2.75;;;15.80;63.90;;;;;;5052133;28;20025;-74
2022/10/08 12:24:59;;;;;;;7.38;2.55;;;16.00;64.30;;;;;;5044661;28;20104;-76
2022/10/08 12:27:36;;;;;;;8.48;2.42;;;16.20;64.60;;;;;;5052891;28;20036;-77
2022/10/08 12:30:17;;;;;;;6.88;2.55;;;16.30;64.60;;;;;;5035475;28;20607;-81
2022/10/08 12:32:42;;;;;;;7.35;2.10;;;16.40;64.60;;;;;;5055045;28;20477;-83
2022/10/08 12:35:24;;;;;;;7.93;1.70;;;16.40;64.40;;;;;;5035335;28;20037;-84
2022/10/08 12:38:03;;;;;;;7.95;2.80;;;16.50;64.10;;;;;;5062156;28;20060;-81
2022/10/08 12:40:43;;;;;;;11.18;2.25;;;16.60;64.00;;;;;;5056773;28;20293;-81
2022/10/08 12:43:24;;;;;;;7.10;2.55;;;16.70;63.80;;;;;;5052463;28;20025;-82
2022/10/08 12:46:09;;;;;;;4.22;1.63;;;16.90;63.80;;;;;;5055007;28;20033;-81
2022/10/08 12:49:05;;;;;;;10.77;2.33;;;16.90;63.60;;;;;;5056042;28;20119;-83
2022/10/08 12:51:59;;;;;;;7.03;1.95;;;17.10;63.60;;;;;;5054541;28;20128;-82
2022/10/08 12:54:29;;;;;;;5.25;2.30;;;17.20;63.30;;;;;;5052356;28;20021;-83
2022/10/08 12:56:55;;;;;;;6.85;2.40;;;17.30;63.10;;;;;;5038687;28;20041;-87
2022/10/08 12:59:26;;;;;;;8.23;1.98;;;17.50;63.00;;;;;;5051616;28;20539;-82
2022/10/08 13:01:53;;;;;;;6.78;2.05;;;17.60;62.70;;;;;;5054811;28;20067;-74
2022/10/08 13:04:21;;;;;;;4.55;2.40;;;17.70;62.40;;;;;;5053057;28;20331;-75
2022/10/08 13:06:53;;;;;;;9.25;2.50;;;17.90;62.30;;;;;;5040418;28;20470;-76
2022/10/08 13:09:33;;;;;;;6.20;2.47;;;17.90;62.00;;;;;;5054443;28;20055;-75
2022/10/08 13:12:03;;;;;;;7.10;2.42;;;18.00;62.00;;;;;;5047103;28;20033;-76
2022/10/08 13:14:36;;;;;;;6.57;2.67;;;18.20;62.10;;;;;;5019434;28;20047;-76
2022/10/08 13:17:02;;;;;;;5.68;2.10;;;18.20;61.90;;;;;;5040656;28;20114;-77
2022/10/08 13:19:37;;;;;;;5.88;1.98;;;18.30;61.80;;;;;;5048526;28;20032;-77